Time;durP1;ratioP1;P1;durP2;ratioP2;P2;SDS_P1;SDS_P2;PMS_P1;PMS_P2;Temp;Humidity;BMP_temperature;BMP_pressure;BME280_temperature;BME280_humidity;BME280_pressure;Samples;Min_cycle;Max_cycle;Signal;HPM_P1;HPM_P2
2022/06/26 00:01:21;;;;;;;1999.90;999.90;;;19.90;99.90;;;;;;5065397;28;20458;-71
2022/06/26 00:03:48;;;;;;;1999.90;999.90;;;19.80;99.90;;;;;;5068661;28;20882;-70
2022/06/26 00:06:16;;;;;;;1999.90;999.90;;;19.80;99.90;;;;;;5056949;28;20507;-70
2022/06/26 00:08:43;;;;;;;1999.90;999.90;;;19.70;99.90;;;;;;5062331;28;20907;-70
2022/06/26 00:11:09;;;;;;;1999.90;999.90;;;19.70;99.90;;;;;;5065015;28;20473;-70
2022/06/26 00:13:36;;;;;;;1999.90;999.90;;;19.60;99.90;;;;;;5069958;28;20469;-70
2022/06/26 00:16:03;;;;;;;1999.90;999.90;;;19.50;99.90;;;;;;5062966;28;20481;-70
2022/06/26 00:18:29;;;;;;;1999.90;999.90;;;19.50;99.90;;;;;;5059213;28;20512;-70
2022/06/26 00:20:56;;;;;;;1999.90;999.90;;;19.60;99.90;;;;;;5057199;28;20977;-70
2022/06/26 00:23:24;;;;;;;1999.90;999.90;;;19.30;99.90;;;;;;5062814;28;20875;-70
2022/06/26 00:25:51;;;;;;;1999.90;999.90;;;19.30;99.90;;;;;;5057489;28;20461;-70
2022/06/26 00:28:17;;;;;;;1999.90;999.90;;;19.30;99.90;;;;;;5063024;28;20465;-70
2022/06/26 00:30:44;;;;;;;1999.90;999.90;;;19.30;99.90;;;;;;5065572;28;20515;-70
2022/06/26 00:33:11;;;;;;;1999.90;999.90;;;19.20;99.90;;;;;;5065319;28;20865;-70
2022/06/26 00:35:37;;;;;;;1999.90;999.90;;;19.10;99.90;;;;;;5050936;28;20554;-69
2022/06/26 00:38:04;;;;;;;1999.90;999.90;;;19.10;99.90;;;;;;5058145;28;20470;-70
2022/06/26 00:40:32;;;;;;;1999.90;999.90;;;18.90;99.90;;;;;;5063510;28;20474;-70
2022/06/26 00:42:58;;;;;;;1999.90;999.90;;;18.90;99.90;;;;;;5067431;28;20512;-70
2022/06/26 00:45:25;;;;;;;1999.90;999.90;;;18.80;99.90;;;;;;5061570;28;20512;-70
2022/06/26 00:47:52;;;;;;;1999.90;999.90;;;18.60;99.90;;;;;;5060928;28;20925;-70
2022/06/26 00:50:18;;;;;;;1999.90;999.90;;;18.60;99.90;;;;;;5052341;28;20474;-69
2022/06/26 00:52:46;;;;;;;1999.90;999.90;;;18.80;99.90;;;;;;5054098;28;20443;-69
2022/06/26 00:55:13;;;;;;;1999.90;999.90;;;18.90;99.90;;;;;;5061394;28;20486;-71
2022/06/26 00:57:41;;;;;;;1999.90;999.90;;;18.80;99.90;;;;;;5059866;28;20475;-70
2022/06/26 01:00:10;;;;;;;1999.90;999.90;;;18.70;99.90;;;;;;5060446;28;20869;-70
2022/06/26 01:02:37;;;;;;;1999.90;999.90;;;18.70;99.90;;;;;;5047553;28;20511;-69
2022/06/26 01:05:04;;;;;;;1999.90;999.90;;;18.50;99.90;;;;;;5057852;28;20465;-69
2022/06/26 01:07:32;;;;;;;1999.90;999.90;;;18.40;99.90;;;;;;5059970;28;20466;-70
2022/06/26 01:09:58;;;;;;;1999.90;999.90;;;18.40;99.90;;;;;;5061155;28;20470;-70
2022/06/26 01:12:25;;;;;;;1999.90;999.90;;;18.40;99.90;;;;;;5068419;28;20441;-70
2022/06/26 01:14:53;;;;;;;1999.90;999.90;;;18.40;99.90;;;;;;5051107;28;20574;-70
2022/06/26 01:17:20;;;;;;;1999.90;999.90;;;18.40;99.90;;;;;;5058225;28;20938;-70
2022/06/26 01:22:17;;;;;;;1999.90;999.90;;;18.40;99.90;;;;;;5044613;28;20470;-68
2022/06/26 01:24:46;;;;;;;1999.90;999.90;;;18.50;99.90;;;;;;5051456;28;20514;-69
2022/06/26 01:27:13;;;;;;;1999.90;999.90;;;18.50;99.90;;;;;;5052212;28;20450;-69
2022/06/26 01:29:39;;;;;;;1999.90;999.90;;;18.30;99.90;;;;;;5051347;28;20809;-69
2022/06/26 01:32:07;;;;;;;1999.90;999.90;;;18.00;99.90;;;;;;5032167;28;20485;-69
2022/06/26 01:34:34;;;;;;;1999.90;999.90;;;17.70;99.90;;;;;;5030721;28;20509;-69
2022/06/26 01:37:01;;;;;;;1999.90;999.90;;;17.40;99.90;;;;;;5031766;28;20940;-69
2022/06/26 01:39:28;;;;;;;1999.90;999.90;;;17.50;99.90;;;;;;5031230;28;20900;-69
2022/06/26 01:41:56;;;;;;;1999.90;999.90;;;17.50;99.90;;;;;;5031183;28;20490;-69
2022/06/26 01:44:23;;;;;;;1999.90;999.90;;;17.70;99.90;;;;;;5030700;28;20446;-68
2022/06/26 01:46:49;;;;;;;1999.90;999.90;;;17.80;99.90;;;;;;5031694;28;20501;-69
2022/06/26 01:49:16;;;;;;;1999.90;999.90;;;17.90;99.90;;;;;;5031878;28;20451;-69
2022/06/26 01:51:43;;;;;;;1999.90;999.90;;;17.90;99.90;;;;;;5030280;28;20994;-69
2022/06/26 01:54:10;;;;;;;1999.90;999.90;;;17.60;99.90;;;;;;5031316;28;20810;-69
2022/06/26 01:56:37;;;;;;;1999.90;999.90;;;17.60;99.90;;;;;;5031268;28;20487;-69
2022/06/26 01:59:05;;;;;;;1999.90;999.90;;;17.40;99.90;;;;;;5031566;28;20462;-69
2022/06/26 02:01:33;;;;;;;1999.90;999.90;;;17.40;99.90;;;;;;5031387;28;20471;-69
2022/06/26 02:04:00;;;;;;;1999.90;999.90;;;17.40;99.90;;;;;;5031034;28;20493;-69
2022/06/26 02:06:26;;;;;;;1999.90;999.90;;;17.30;99.90;;;;;;5031011;28;20505;-69
2022/06/26 02:08:53;;;;;;;1999.90;999.90;;;17.30;99.90;;;;;;5031209;28;20459;-69
2022/06/26 02:14:05;;;;;;;1999.90;999.90;;;17.30;99.90;;;;;;5030180;28;21007;-69
2022/06/26 02:16:32;;;;;;;1999.90;999.90;;;17.30;99.90;;;;;;5030134;28;20487;-69
2022/06/26 02:18:59;;;;;;;1999.90;999.90;;;17.30;99.90;;;;;;5031244;28;20525;-69
2022/06/26 02:21:29;;;;;;;1999.90;999.90;;;17.20;99.90;;;;;;5030425;28;20524;-69
2022/06/26 02:23:57;;;;;;;1999.90;999.90;;;17.30;99.90;;;;;;5031146;28;20568;-69
2022/06/26 02:26:24;;;;;;;1999.90;999.90;;;17.30;99.90;;;;;;5031148;28;20446;-71
2022/06/26 02:28:51;;;;;;;1999.90;999.90;;;17.10;99.90;;;;;;5031138;28;20517;-72
2022/06/26 02:31:19;;;;;;;1999.90;999.90;;;17.20;99.90;;;;;;5030661;28;20573;-72
2022/06/26 02:33:45;;;;;;;1999.90;999.90;;;17.30;99.90;;;;;;5030748;28;20447;-71
2022/06/26 02:36:12;;;;;;;1999.90;999.90;;;17.10;99.90;;;;;;5031334;28;20483;-71
2022/06/26 02:38:39;;;;;;;1999.90;999.90;;;17.20;99.90;;;;;;5031001;28;20537;-69
2022/06/26 02:41:06;;;;;;;1999.90;999.90;;;17.30;99.90;;;;;;5030721;28;20890;-69
2022/06/26 02:43:34;;;;;;;1999.90;999.90;;;17.40;99.90;;;;;;5030788;28;20463;-70
2022/06/26 02:46:00;;;;;;;1999.90;999.90;;;17.40;99.90;;;;;;5033006;28;20459;-69
2022/06/26 02:48:28;;;;;;;1999.90;999.90;;;17.40;99.90;;;;;;5034191;28;20876;-72
2022/06/26 02:50:55;;;;;;;1999.90;999.90;;;17.20;99.90;;;;;;5034698;28;21048;-72
2022/06/26 02:53:22;;;;;;;1999.90;999.90;;;17.20;99.90;;;;;;5035018;28;20537;-71
2022/06/26 02:55:49;;;;;;;1999.90;999.90;;;17.20;99.90;;;;;;5034945;28;20482;-72
2022/06/26 02:58:16;;;;;;;1999.90;999.90;;;17.20;99.90;;;;;;5035714;28;21048;-71
2022/06/26 03:00:42;;;;;;;1999.90;999.90;;;17.40;99.90;;;;;;5034106;28;20467;-71
2022/06/26 03:03:09;;;;;;;1999.90;999.90;;;17.40;99.90;;;;;;5033135;28;20492;-71
2022/06/26 03:05:37;;;;;;;1999.90;999.90;;;17.40;99.90;;;;;;5032333;28;20525;-71
2022/06/26 03:08:04;;;;;;;1999.90;999.90;;;17.40;99.90;;;;;;5032676;28;20505;-72
2022/06/26 03:10:31;;;;;;;1999.90;999.90;;;17.40;99.90;;;;;;5031956;28;20564;-71
2022/06/26 03:12:57;;;;;;;1999.90;999.90;;;17.60;99.90;;;;;;5031944;28;20525;-69
2022/06/26 03:15:24;;;;;;;1999.90;999.90;;;17.60;99.90;;;;;;5031670;28;20490;-69
2022/06/26 03:17:51;;;;;;;1999.90;999.90;;;17.60;99.90;;;;;;5032578;28;20882;-69
2022/06/26 03:20:19;;;;;;;1999.90;999.90;;;17.80;99.90;;;;;;5034171;28;20506;-72
2022/06/26 03:22:50;;;;;;;1999.90;999.90;;;17.70;99.90;;;;;;5033576;28;20887;-66
2022/06/26 03:25:16;;;;;;;1999.90;999.90;;;17.70;99.90;;;;;;5033638;28;20550;-71
2022/06/26 03:27:43;;;;;;;1999.90;999.90;;;17.70;99.90;;;;;;5033595;28;20517;-71
2022/06/26 03:30:11;;;;;;;1999.90;999.90;;;17.60;99.90;;;;;;5033860;28;20491;-71
2022/06/26 03:32:38;;;;;;;1999.90;999.90;;;17.70;99.90;;;;;;5026154;28;20443;-71
2022/06/26 03:35:06;;;;;;;1999.90;999.90;;;17.50;99.90;;;;;;5033090;28;20888;-71
2022/06/26 03:37:33;;;;;;;1999.90;999.90;;;17.60;99.90;;;;;;5034429;28;20455;-71
2022/06/26 03:40:01;;;;;;;1999.90;999.90;;;17.60;99.90;;;;;;5033717;28;20517;-71
2022/06/26 03:42:28;;;;;;;1999.90;999.90;;;17.60;99.90;;;;;;5033885;28;20443;-71
2022/06/26 03:44:54;;;;;;;1999.90;999.90;;;17.80;99.90;;;;;;5032716;28;20466;-69
2022/06/26 03:47:21;;;;;;;1999.90;999.90;;;17.90;99.90;;;;;;5033065;28;20459;-68
2022/06/26 03:49:52;;;;;;;1999.90;999.90;;;17.50;99.90;;;;;;5033195;28;20447;-69
2022/06/26 03:52:19;;;;;;;1999.90;999.90;;;18.00;99.90;;;;;;5033754;28;20447;-69
2022/06/26 03:54:46;;;;;;;1999.90;999.90;;;18.10;99.90;;;;;;5032966;28;20462;-69
2022/06/26 03:57:14;;;;;;;1999.90;999.90;;;18.00;99.90;;;;;;5033332;28;20923;-70
2022/06/26 03:59:43;;;;;;;1999.90;999.90;;;18.10;99.90;;;;;;5033281;28;20463;-69
2022/06/26 04:02:10;;;;;;;1999.90;999.90;;;18.30;99.90;;;;;;5033778;28;20443;-69
2022/06/26 04:04:36;;;;;;;1999.90;999.90;;;18.20;99.90;;;;;;5033016;28;20468;-69
2022/06/26 04:07:03;;;;;;;1999.90;999.90;;;18.20;99.90;;;;;;5033631;28;20447;-69
2022/06/26 04:09:30;;;;;;;1999.90;999.90;;;18.30;99.90;;;;;;5033214;28;20502;-69
2022/06/26 04:11:57;;;;;;;1999.90;999.90;;;18.40;99.90;;;;;;5033777;28;20471;-69
2022/06/26 04:14:25;;;;;;;1999.90;999.90;;;18.60;99.90;;;;;;5033212;28;20950;-69
2022/06/26 04:16:51;;;;;;;1999.90;999.90;;;18.80;99.90;;;;;;5033730;28;20540;-69
2022/06/26 04:19:18;;;;;;;1999.90;999.90;;;18.80;99.90;;;;;;5033360;28;20899;-69
2022/06/26 04:21:45;;;;;;;1999.90;999.90;;;18.90;99.90;;;;;;5033080;28;20483;-69
2022/06/26 04:24:12;;;;;;;1999.90;999.90;;;18.70;99.90;;;;;;5034845;28;20513;-69
2022/06/26 04:26:38;;;;;;;1999.90;999.90;;;18.80;99.90;;;;;;5033889;28;20447;-68
2022/06/26 04:29:05;;;;;;;1999.90;999.90;;;18.90;99.90;;;;;;5032720;28;20467;-69
2022/06/26 04:31:33;;;;;;;1999.90;999.90;;;19.00;99.90;;;;;;5033482;28;20459;-69
2022/06/26 04:34:00;;;;;;;1999.90;999.90;;;19.30;99.90;;;;;;5031714;28;20494;-69
2022/06/26 04:36:26;;;;;;;1999.90;999.90;;;19.40;99.90;;;;;;5033183;28;20499;-69
2022/06/26 04:38:53;;;;;;;1999.90;999.90;;;19.60;99.90;;;;;;5033320;28;20451;-69
2022/06/26 04:41:38;;;;;;;1999.90;999.90;;;19.90;99.90;;;;;;5033510;28;20512;-69
2022/06/26 04:44:07;;;;;;;1999.90;999.90;;;19.80;99.90;;;;;;5033013;28;20500;-69
2022/06/26 04:46:35;;;;;;;1999.90;999.90;;;19.60;99.90;;;;;;5033249;28;20860;-69
2022/06/26 04:49:03;;;;;;;1999.90;999.90;;;19.60;99.90;;;;;;5028762;28;20679;-69
2022/06/26 04:51:29;;;;;;;1999.90;999.90;;;19.70;99.90;;;;;;5032198;28;21112;-69
2022/06/26 04:53:56;;;;;;;1999.90;999.90;;;19.60;99.90;;;;;;5033265;28;20447;-69
2022/06/26 04:56:23;;;;;;;1999.90;999.90;;;19.70;99.90;;;;;;5031989;28;20491;-69
2022/06/26 04:58:49;;;;;;;1999.90;999.90;;;20.10;99.90;;;;;;5032618;28;20513;-69
2022/06/26 05:01:16;;;;;;;1999.90;999.90;;;19.80;99.90;;;;;;5032691;28;20495;-69
2022/06/26 05:03:44;;;;;;;1999.90;999.90;;;19.80;99.90;;;;;;5032727;28;20851;-69
2022/06/26 05:06:11;;;;;;;1999.90;999.90;;;20.10;99.90;;;;;;5032929;28;20440;-69
2022/06/26 05:08:37;;;;;;;1999.90;999.90;;;20.40;99.90;;;;;;5015934;28;20447;-69
2022/06/26 05:11:05;;;;;;;1999.90;999.90;;;20.50;99.90;;;;;;5032594;28;20885;-70
2022/06/26 05:13:31;;;;;;;1999.90;999.90;;;20.60;99.90;;;;;;5032683;28;20448;-69
2022/06/26 05:15:58;;;;;;;1999.90;999.90;;;20.80;99.90;;;;;;5032305;28;20552;-66
2022/06/26 05:18:25;;;;;;;1999.90;999.90;;;20.90;99.90;;;;;;5032387;28;20486;-69
2022/06/26 05:20:53;;;;;;;1999.90;999.90;;;21.30;99.90;;;;;;5032405;28;20486;-70
2022/06/26 05:23:20;;;;;;;1999.90;999.90;;;21.80;99.90;;;;;;5031701;28;20525;-69
2022/06/26 05:25:47;;;;;;;1999.90;999.90;;;22.10;99.90;;;;;;5032806;28;20505;-66
2022/06/26 05:28:14;;;;;;;1999.90;999.90;;;22.30;99.90;;;;;;5032027;28;20947;-68
2022/06/26 05:30:41;;;;;;;1999.90;999.90;;;22.50;99.90;;;;;;5032434;28;20844;-69
2022/06/26 05:33:08;;;;;;;1999.90;999.90;;;22.80;99.90;;;;;;5031803;28;20889;-70
2022/06/26 05:35:35;;;;;;;1999.90;999.90;;;23.10;99.90;;;;;;5032551;28;20485;-69
2022/06/26 05:38:03;;;;;;;1999.90;999.90;;;23.40;99.90;;;;;;5032190;28;20479;-69
2022/06/26 05:40:30;;;;;;;1999.90;999.90;;;23.40;99.90;;;;;;5032794;28;21085;-69
2022/06/26 05:42:58;;;;;;;1999.90;999.90;;;23.80;99.90;;;;;;5032329;28;20517;-70
2022/06/26 05:45:24;;;;;;;1999.90;999.90;;;24.40;99.90;;;;;;5031773;28;20443;-70
2022/06/26 05:47:51;;;;;;;1999.90;999.90;;;24.20;99.90;;;;;;5032543;28;20436;-69
2022/06/26 05:50:20;;;;;;;1999.90;999.90;;;24.60;99.90;;;;;;5031897;28;20474;-69
2022/06/26 05:52:47;;;;;;;1999.90;999.90;;;25.20;99.90;;;;;;5032282;28;20466;-69
2022/06/26 05:55:15;;;;;;;1999.90;999.90;;;25.10;99.90;;;;;;5031443;28;20447;-68
2022/06/26 05:57:42;;;;;;;1999.90;999.90;;;24.60;99.90;;;;;;5024299;28;20994;-70
2022/06/26 06:00:11;;;;;;;1999.90;999.90;;;24.80;99.90;;;;;;5031829;28;20521;-69
2022/06/26 06:02:38;;;;;;;1999.90;999.90;;;24.90;99.90;;;;;;5032270;28;20451;-69
2022/06/26 06:05:05;;;;;;;1999.90;999.90;;;25.50;99.90;;;;;;5033349;28;20892;-70
2022/06/26 06:07:32;;;;;;;1999.90;999.90;;;25.60;99.90;;;;;;5031389;28;20529;-69
2022/06/26 06:09:58;;;;;;;1999.90;999.90;;;25.70;99.90;;;;;;5031580;28;20443;-69
2022/06/26 06:12:26;;;;;;;1999.90;999.90;;;25.90;99.90;;;;;;5031974;28;20569;-69
2022/06/26 06:14:53;;;;;;;1999.90;999.90;;;26.10;99.90;;;;;;5031369;28;20455;-70
2022/06/26 06:17:40;;;;;;;1999.90;999.90;;;26.00;99.90;;;;;;5031565;28;20529;-70
2022/06/26 06:20:11;;;;;;;1999.90;999.90;;;26.00;99.90;;;;;;5032423;28;20490;-69
2022/06/26 06:22:38;;;;;;;1999.90;999.90;;;26.30;99.90;;;;;;5017885;28;20434;-70
2022/06/26 06:25:05;;;;;;;1999.90;999.90;;;26.30;99.90;;;;;;5034884;28;20471;-70
2022/06/26 06:27:33;;;;;;;1999.90;999.90;;;26.80;99.90;;;;;;5035185;28;20509;-67
2022/06/26 06:30:00;;;;;;;1999.90;999.90;;;27.30;99.90;;;;;;5030567;28;20863;-70
2022/06/26 06:32:27;;;;;;;1999.90;999.90;;;27.50;99.90;;;;;;5035816;28;20501;-70
2022/06/26 06:34:54;;;;;;;1999.90;999.90;;;27.60;99.70;;;;;;5034737;28;20501;-69
2022/06/26 06:37:20;;;;;;;1999.90;999.90;;;27.80;99.00;;;;;;5035781;28;20524;-69
2022/06/26 06:39:47;;;;;;;1999.90;999.90;;;28.10;98.90;;;;;;5034875;28;20466;-69
2022/06/26 06:42:14;;;;;;;1999.90;999.90;;;28.10;98.60;;;;;;5035950;28;20443;-70
2022/06/26 06:44:42;;;;;;;1999.90;999.90;;;28.40;97.70;;;;;;5034870;28;20528;-70
2022/06/26 06:47:09;;;;;;;1999.90;999.90;;;28.50;97.40;;;;;;5034637;28;20536;-69
2022/06/26 06:49:36;;;;;;;1999.90;999.90;;;28.90;96.60;;;;;;5034492;28;20463;-69
2022/06/26 06:52:03;;;;;;;1999.90;999.90;;;29.10;96.30;;;;;;5035451;28;20509;-69
2022/06/26 06:54:30;;;;;;;1999.90;999.90;;;29.20;96.60;;;;;;5034810;28;20463;-69
2022/06/26 06:56:57;;;;;;;1999.90;999.90;;;28.90;96.50;;;;;;5033874;28;21045;-69
2022/06/26 06:59:23;;;;;;;1999.90;999.90;;;28.50;97.40;;;;;;5034006;28;20462;-70
2022/06/26 07:01:51;;;;;;;1999.90;999.90;;;28.70;96.30;;;;;;5035035;28;20528;-69
2022/06/26 07:04:18;;;;;;;1999.90;999.90;;;28.80;95.70;;;;;;5035091;28;20442;-69
2022/06/26 07:06:45;;;;;;;1999.90;999.90;;;28.90;95.70;;;;;;5033610;28;20871;-67
2022/06/26 07:09:12;;;;;;;1999.90;999.90;;;29.00;95.30;;;;;;5035198;28;20501;-70
2022/06/26 07:11:39;;;;;;;1999.90;999.90;;;28.90;95.50;;;;;;5034227;28;21060;-70
2022/06/26 07:14:06;;;;;;;1999.90;999.90;;;29.20;94.00;;;;;;5034283;28;20486;-70
2022/06/26 07:16:32;;;;;;;1999.90;999.90;;;29.30;93.90;;;;;;5034281;28;20455;-70
2022/06/26 07:19:00;;;;;;;1999.90;999.90;;;29.40;91.60;;;;;;5034222;28;21013;-68
2022/06/26 07:21:27;;;;;;;1999.90;999.90;;;29.10;93.40;;;;;;5053893;22;20563;-70
2022/06/26 07:23:54;;;;;;;1999.90;999.90;;;28.70;94.60;;;;;;5039876;28;20474;-70
2022/06/26 07:26:20;;;;;;;1999.90;999.90;;;28.30;94.30;;;;;;5034079;28;20447;-70
2022/06/26 07:28:47;;;;;;;1999.90;999.90;;;27.90;96.30;;;;;;5033822;28;20517;-70
2022/06/26 07:31:13;;;;;;;1999.90;999.90;;;27.90;96.20;;;;;;5033124;28;20540;-70
2022/06/26 07:36:25;;;;;;;1999.90;999.90;;;28.30;95.10;;;;;;5035330;28;20430;-70
2022/06/26 07:38:52;;;;;;;1999.90;999.90;;;27.90;94.40;;;;;;5038253;28;20467;-70
2022/06/26 07:41:20;;;;;;;1999.90;999.90;;;28.00;93.40;;;;;;5038892;28;20514;-70
2022/06/26 07:43:47;;;;;;;1999.90;999.90;;;28.10;94.60;;;;;;5036293;28;20478;-70
2022/06/26 07:46:13;;;;;;;1999.90;999.90;;;28.10;94.90;;;;;;5038326;28;20467;-70
2022/06/26 07:48:40;;;;;;;1999.90;999.90;;;28.30;94.00;;;;;;5033024;28;20893;-70
2022/06/26 07:51:07;;;;;;;1999.90;999.90;;;28.40;94.50;;;;;;5033319;28;20536;-70
2022/06/26 07:53:36;;;;;;;1999.90;999.90;;;27.90;94.90;;;;;;5032916;28;20513;-70
2022/06/26 07:56:03;;;;;;;1999.90;999.90;;;28.10;94.40;;;;;;5033969;28;20479;-71
2022/06/26 07:58:30;;;;;;;1999.90;999.90;;;28.20;95.00;;;;;;5032908;28;20487;-71
2022/06/26 08:00:57;;;;;;;1999.90;999.90;;;28.50;92.90;;;;;;5031473;28;20908;-71
2022/06/26 08:03:23;;;;;;;1999.90;999.90;;;28.50;92.60;;;;;;5033552;28;20526;-71
2022/06/26 08:05:50;;;;;;;1999.90;999.90;;;28.70;94.30;;;;;;5032905;28;20451;-71
2022/06/26 08:08:17;;;;;;;1999.90;999.90;;;28.90;92.10;;;;;;5033107;28;20494;-68
2022/06/26 08:10:45;;;;;;;1999.90;999.90;;;29.00;89.70;;;;;;5031717;28;20467;-68
2022/06/26 08:13:11;;;;;;;1999.90;999.90;;;28.90;90.00;;;;;;5032587;28;20524;-71
2022/06/26 08:15:38;;;;;;;1999.90;999.90;;;28.80;91.60;;;;;;5025215;28;20447;-71
2022/06/26 08:18:07;;;;;;;1999.90;999.90;;;28.50;93.40;;;;;;5031549;28;20490;-71
2022/06/26 08:20:34;;;;;;;1999.90;999.90;;;28.50;93.00;;;;;;5033491;28;20455;-71
2022/06/26 08:23:01;;;;;;;1999.90;999.90;;;28.50;92.80;;;;;;5030592;28;20501;-71
2022/06/26 08:25:27;;;;;;;1999.90;999.90;;;27.90;92.80;;;;;;5032973;28;20470;-71
2022/06/26 08:27:56;;;;;;;1999.90;999.90;;;28.10;93.10;;;;;;5032463;28;20459;-71
2022/06/26 08:30:22;;;;;;;1999.90;999.90;;;27.80;94.90;;;;;;5033015;28;20542;-71
2022/06/26 08:32:49;;;;;;;1999.90;999.90;;;27.90;93.90;;;;;;5031067;28;20561;-71
2022/06/26 08:35:16;;;;;;;1999.90;999.90;;;28.20;92.70;;;;;;5032946;28;20500;-71
2022/06/26 08:37:45;;;;;;;1999.90;999.90;;;28.30;94.40;;;;;;5030661;28;20537;-71
2022/06/26 08:40:12;;;;;;;1999.90;999.90;;;28.30;92.70;;;;;;5031897;28;20467;-71
2022/06/26 08:42:42;;;;;;;1999.90;999.90;;;28.30;92.20;;;;;;5031571;28;21001;-71
2022/06/26 08:45:12;;;;;;;1999.90;999.90;;;28.50;91.80;;;;;;5032243;28;20819;-71
2022/06/26 08:47:40;;;;;;;1999.90;999.90;;;28.40;92.50;;;;;;5014291;28;20813;-71
2022/06/26 08:50:08;;;;;;;1999.90;999.90;;;28.30;92.30;;;;;;5032777;28;20490;-71
2022/06/26 08:52:35;;;;;;;1999.90;999.90;;;28.20;91.90;;;;;;5031909;28;20466;-71
2022/06/26 08:55:03;;;;;;;1999.90;999.90;;;28.10;93.20;;;;;;5032370;28;20447;-71
2022/06/26 08:57:30;;;;;;;1999.90;999.90;;;27.90;92.90;;;;;;5031415;28;20990;-71
2022/06/26 08:59:56;;;;;;;1999.90;999.90;;;28.00;92.90;;;;;;5032240;28;20505;-71
2022/06/26 09:02:24;;;;;;;1999.90;999.90;;;27.80;93.80;;;;;;5031467;28;20525;-71
2022/06/26 09:04:51;;;;;;;1999.90;999.90;;;27.70;94.30;;;;;;5031353;28;20471;-71
2022/06/26 09:07:19;;;;;;;1999.90;999.90;;;27.60;93.10;;;;;;5030818;28;20507;-71
2022/06/26 09:09:46;;;;;;;1999.90;999.90;;;27.50;93.60;;;;;;5032635;28;20450;-71
2022/06/26 09:12:12;;;;;;;1999.90;999.90;;;27.60;92.70;;;;;;5031159;28;20487;-71
2022/06/26 09:14:39;;;;;;;1999.90;999.90;;;27.60;94.70;;;;;;5031923;28;20448;-71
2022/06/26 09:17:06;;;;;;;1999.90;999.90;;;27.50;94.90;;;;;;5030957;28;20466;-71
2022/06/26 09:19:36;;;;;;;1999.90;999.90;;;27.40;95.50;;;;;;5032117;28;20444;-71
2022/06/26 09:22:10;;;;;;;1999.90;999.90;;;27.40;94.90;;;;;;5031037;28;20544;-68
2022/06/26 09:24:38;;;;;;;1999.90;999.90;;;26.90;99.30;;;;;;5031787;28;20454;-68
2022/06/26 09:27:07;;;;;;;1999.90;999.90;;;26.50;99.90;;;;;;5031284;28;20467;-68
2022/06/26 09:29:34;;;;;;;1999.90;999.90;;;26.10;99.90;;;;;;5032153;28;20513;-68
2022/06/26 09:32:11;;;;;;;1999.90;999.90;;;25.80;99.90;;;;;;5031379;28;20635;-68
2022/06/26 09:34:43;;;;;;;1999.90;999.90;;;25.70;99.90;;;;;;5023652;28;20447;-68
2022/06/26 09:37:10;;;;;;;1999.90;999.90;;;25.70;99.90;;;;;;5024572;28;20476;-68
2022/06/26 09:39:37;;;;;;;1999.90;999.90;;;25.70;99.90;;;;;;5012306;28;20440;-68
2022/06/26 09:42:15;;;;;;;1999.90;999.90;;;25.70;99.90;;;;;;5019192;28;20891;-68
2022/06/26 09:44:44;;;;;;;1999.90;999.90;;;25.60;99.90;;;;;;5024174;28;20525;-68
2022/06/26 09:47:23;;;;;;;1999.90;999.90;;;25.60;99.90;;;;;;5030420;28;21037;-69
2022/06/26 09:49:53;;;;;;;1999.90;999.90;;;25.50;99.90;;;;;;5012089;28;20966;-67
2022/06/26 09:52:22;;;;;;;1999.90;999.90;;;25.50;99.90;;;;;;5028939;28;20487;-67
2022/06/26 09:54:49;;;;;;;1999.90;999.90;;;25.80;99.90;;;;;;5029784;28;20538;-67
2022/06/26 09:57:17;;;;;;;1999.90;999.90;;;25.50;99.90;;;;;;5031418;28;20856;-67
2022/06/26 09:59:44;;;;;;;1999.90;999.90;;;25.50;99.90;;;;;;5030922;28;20463;-67
2022/06/26 10:07:48;;;;;;;1999.90;999.90;;;25.80;99.90;;;;;;5024704;28;20918;-68
2022/06/26 10:10:16;;;;;;;1999.90;999.90;;;25.80;99.90;;;;;;5030622;28;20467;-68
2022/06/26 10:12:43;;;;;;;1999.90;999.90;;;26.00;99.90;;;;;;5030056;28;20566;-68
2022/06/26 10:15:12;;;;;;;1999.90;999.90;;;26.50;99.90;;;;;;5030522;28;20463;-70
2022/06/26 10:17:54;;;;;;;1999.90;999.90;;;27.10;99.90;;;;;;5023338;28;20525;-70
2022/06/26 10:20:24;;;;;;;1999.90;999.90;;;27.50;99.00;;;;;;5030474;28;20466;-70
2022/06/26 10:22:50;;;;;;;1999.90;999.90;;;27.60;98.60;;;;;;5030797;28;20598;-70
2022/06/26 10:25:25;;;;;;;1999.90;999.90;;;27.60;98.80;;;;;;5030595;28;20471;-70
2022/06/26 10:27:52;;;;;;;1999.90;999.90;;;27.50;98.70;;;;;;5031444;28;20825;-70
2022/06/26 10:30:21;;;;;;;1999.90;999.90;;;27.70;97.90;;;;;;5030706;28;20493;-70
2022/06/26 10:33:07;;;;;;;1999.90;999.90;;;28.00;97.60;;;;;;5030854;28;20469;-70
2022/06/26 10:35:40;;;;;;;1999.90;999.90;;;28.00;97.10;;;;;;5030353;28;20959;-70
2022/06/26 10:38:22;;;;;;;1999.90;999.90;;;27.90;96.90;;;;;;5030191;28;20494;-70
2022/06/26 10:43:50;;;;;;;1999.90;999.90;;;27.90;97.00;;;;;;5029992;28;20446;-70
2022/06/26 10:46:20;;;;;;;1999.90;999.90;;;27.90;97.20;;;;;;5031354;28;20512;-70
2022/06/26 10:48:53;;;;;;;1999.90;999.90;;;28.00;97.30;;;;;;5030262;28;20459;-70
2022/06/26 10:51:31;;;;;;;1999.90;999.90;;;28.10;98.00;;;;;;5030284;28;20865;-70
2022/06/26 10:53:58;;;;;;;1999.90;999.90;;;28.20;97.40;;;;;;5021428;28;20475;-71
2022/06/26 10:56:24;;;;;;;1999.90;999.90;;;28.40;97.50;;;;;;5030435;28;20481;-71
2022/06/26 10:59:00;;;;;;;1999.90;999.90;;;28.00;96.90;;;;;;5030031;28;20986;-70
2022/06/26 11:01:27;;;;;;;1999.90;999.90;;;28.00;97.50;;;;;;5030203;28;20560;-71
2022/06/26 11:03:54;;;;;;;1999.90;999.90;;;27.70;97.40;;;;;;5029942;28;20447;-71
2022/06/26 11:06:25;;;;;;;1999.90;999.90;;;27.70;98.10;;;;;;5031061;28;20450;-71
2022/06/26 11:08:54;;;;;;;1999.90;999.90;;;27.60;98.10;;;;;;5034802;28;20427;-71
2022/06/26 11:11:23;;;;;;;1999.90;999.90;;;27.50;98.30;;;;;;5032225;28;20487;-70
2022/06/26 11:13:51;;;;;;;1999.90;999.90;;;27.20;98.50;;;;;;5033493;28;20455;-70
2022/06/26 11:16:27;;;;;;;1999.90;999.90;;;27.20;98.80;;;;;;5033298;28;20517;-71
2022/06/26 11:18:54;;;;;;;1999.90;999.90;;;26.90;99.90;;;;;;5033349;28;21047;-71
2022/06/26 11:21:21;;;;;;;1999.90;999.90;;;26.80;99.90;;;;;;5033348;28;20499;-71
2022/06/26 11:23:51;;;;;;;1999.90;999.90;;;26.50;99.90;;;;;;5033355;28;20463;-71
2022/06/26 11:26:21;;;;;;;1999.90;999.90;;;26.70;99.90;;;;;;5034352;28;20517;-71
2022/06/26 11:28:55;;;;;;;1999.90;999.90;;;26.90;99.90;;;;;;5033733;28;20463;-71
2022/06/26 11:31:23;;;;;;;1999.90;999.90;;;27.10;99.90;;;;;;5033403;28;20482;-71
2022/06/26 11:33:50;;;;;;;1999.90;999.90;;;27.20;99.50;;;;;;5033007;28;20536;-70
2022/06/26 11:36:18;;;;;;;1999.90;999.90;;;27.40;99.40;;;;;;5034474;28;20452;-71
2022/06/26 11:38:51;;;;;;;1999.90;999.90;;;27.60;99.10;;;;;;5033175;28;20479;-70
2022/06/26 11:41:20;;;;;;;1999.90;999.90;;;27.90;98.70;;;;;;5034207;28;20518;-70
2022/06/26 11:43:48;;;;;;;1999.90;999.90;;;28.10;98.50;;;;;;5033087;28;20565;-70
2022/06/26 11:46:15;;;;;;;1999.90;999.90;;;28.30;97.90;;;;;;5033776;28;20498;-70
2022/06/26 11:48:42;;;;;;;1999.90;999.90;;;28.40;97.70;;;;;;5032821;28;20881;-71
2022/06/26 11:51:13;;;;;;;1999.90;999.90;;;28.40;97.30;;;;;;5033763;28;20475;-71
2022/06/26 11:53:42;;;;;;;1999.90;999.90;;;28.40;97.40;;;;;;5032844;28;20462;-71
2022/06/26 11:56:09;;;;;;;1999.90;999.90;;;28.40;97.20;;;;;;5034097;28;20447;-71
2022/06/26 11:58:37;;;;;;;1999.90;999.90;;;28.50;97.50;;;;;;5032868;28;20480;-70
2022/06/26 12:01:06;;;;;;;1999.90;999.90;;;28.60;96.60;;;;;;5033438;28;20524;-71
2022/06/26 12:03:33;;;;;;;1999.90;999.90;;;28.70;96.40;;;;;;5032839;28;20680;-70
2022/06/26 12:05:59;;;;;;;1999.90;999.90;;;28.40;97.10;;;;;;5033443;28;20439;-70
2022/06/26 12:08:29;;;;;;;1999.90;999.90;;;28.50;97.40;;;;;;5031775;28;20463;-70
2022/06/26 12:10:56;;;;;;;1999.90;999.90;;;28.50;96.30;;;;;;5032693;28;20544;-70
2022/06/26 12:13:29;;;;;;;1999.90;999.90;;;28.70;95.90;;;;;;5033344;28;20974;-70
2022/06/26 12:16:06;;;;;;;1999.90;999.90;;;29.20;96.20;;;;;;5032118;28;20850;-70
2022/06/26 12:18:35;;;;;;;1999.90;999.90;;;29.70;95.40;;;;;;5032019;28;20471;-70